Sedov — UELO — position and weather

sailwx.info

Track history (hours):
 
Tides and Currents Weather Stations Pressure Air Temp Water Temp Dewpoint Dewpoint Depression Visibility Wind Speed Wind Dir Waves Ship Positions

Sedov (Russia)

Last reported at 2016-Aug-27 23:20 UTC. Time now 2016-Aug-28 00:34 UTC.
Position N 53°31' E 008°08'.

Length 118 m; draft 6.3 m.

Type: Sailing vessel. MMSI: 273510000.

Date/timePositionNaut miles runAvg speedWind from/ knotsBaromVisibWave heightAir tempDewpointWater temp
2016-Aug-27 23:20N 53°31' E 008°08'0 0.0
2016-Aug-27 22:17N 53°31' E 008°08'0 0.0
2016-Aug-27 21:32N 53°31' E 008°08'0 0.0
2016-Aug-27 20:32N 53°31' E 008°08'0 0.0
2016-Aug-27 19:32N 53°31' E 008°08'0 0.0
2016-Aug-27 18:32N 53°31' E 008°08'0 0.0
2016-Aug-27 17:29N 53°31' E 008°08'0 0.0
2016-Aug-27 16:32N 53°31' E 008°08'0 0.0
2016-Aug-27 15:32N 53°31' E 008°08'0 0.0
2016-Aug-27 14:29N 53°31' E 008°08'0 0.0
2016-Aug-27 13:26N 53°31' E 008°08'0 0.0
2016-Aug-27 12:26N 53°31' E 008°08'0 0.0
2016-Aug-27 11:32N 53°31' E 008°08'0 0.0
2016-Aug-27 10:29N 53°31' E 008°08'0 0.0
2016-Aug-27 09:29N 53°31' E 008°08'0 0.0
2016-Aug-27 08:32N 53°31' E 008°08'0 0.0
2016-Aug-27 07:29N 53°31' E 008°08'0 0.0
2016-Aug-27 06:23N 53°31' E 008°08'0 0.0
2016-Aug-27 04:32N 53°31' E 008°08'0 0.0
2016-Aug-27 03:32N 53°31' E 008°08'0 0.0
2016-Aug-27 01:32N 53°31' E 008°08'0 0.0
2016-Aug-27 00:26N 53°31' E 008°08'0 0.0
2016-Aug-26 23:17N 53°31' E 008°08'0 0.0
2016-Aug-26 22:17N 53°31' E 008°08'0 0.0
2016-Aug-26 21:32N 53°31' E 008°08'0 0.0
2016-Aug-26 20:32N 53°31' E 008°08'0 0.0
2016-Aug-26 19:32N 53°31' E 008°08'0 0.0
2016-Aug-26 18:32N 53°31' E 008°08'0 0.0
2016-Aug-26 17:32N 53°31' E 008°08'0 0.0
2016-Aug-26 16:32N 53°31' E 008°08'0 0.0
2016-Aug-26 15:32N 53°31' E 008°08'0 0.0
2016-Aug-26 14:32N 53°31' E 008°08'0 0.0
2016-Aug-26 13:33N 53°31' E 008°08'0 0.0
2016-Aug-26 12:33N 53°31' E 008°08'0 0.4
2016-Aug-26 11:33N 53°31' E 008°08'1 1.2
2016-Aug-26 10:33N 53°32' E 008°10'4 4.1
2016-Aug-26 09:33N 53°36' E 008°10'5 5.3
2016-Aug-26 08:33N 53°41' E 008°05'4 4.3
2016-Aug-26 07:34N 53°45' E 008°03'4 3.7
2016-Aug-26 06:33N 53°48' E 008°01'9 4.6
2016-Aug-26 04:33N 53°55' E 007°50'0 0.0
2016-Aug-26 03:30N 53°55' E 007°50'0 0.0
2016-Aug-26 02:30N 53°55' E 007°50'0 0.0
2016-Aug-26 01:09N 53°55' E 007°50'0 0.0
2016-Aug-26 00:33N 53°55' E 007°50'0 0.1
2016-Aug-25 23:24N 53°55' E 007°50'0 0.1
2016-Aug-25 22:33N 53°55' E 007°50'0 0.0
2016-Aug-25 21:30N 53°55' E 007°50'0 0.0
2016-Aug-25 20:30N 53°55' E 007°50'0 0.0
2016-Aug-25 19:27N 53°55' E 007°50'0 0.0
2016-Aug-25 18:24N 53°55' E 007°50'0 0.0
2016-Aug-25 17:33N 53°55' E 007°50'0 0.0
2016-Aug-25 16:30N 53°55' E 007°50'0 0.0
2016-Aug-25 15:24N 53°55' E 007°50'0 0.0
2016-Aug-25 14:24N 53°55' E 007°50'0 0.0
2016-Aug-25 13:33N 53°55' E 007°50'0 0.0
2016-Aug-25 12:30N 53°55' E 007°50'0 0.0
2016-Aug-25 11:30N 53°55' E 007°50'0 0.1
2016-Aug-25 10:33N 53°55' E 007°50'0 0.0
2016-Aug-25 09:30N 53°55' E 007°50'0 0.0
2016-Aug-25 08:33N 53°55' E 007°50'0 0.0
2016-Aug-25 07:33N 53°55' E 007°50'0 0.0
2016-Aug-25 06:33N 53°55' E 007°50'0 0.0
2016-Aug-25 04:33N 53°55' E 007°50'0 0.0
2016-Aug-25 03:30N 53°55' E 007°50'0 0.0
2016-Aug-25 02:33N 53°55' E 007°50'0 0.0
2016-Aug-25 01:30N 53°55' E 007°50'0 0.0
2016-Aug-25 00:33N 53°55' E 007°50'0 0.0
2016-Aug-24 23:33N 53°55' E 007°50'0 0.1
2016-Aug-24 22:33N 53°55' E 007°50'0 0.0
2016-Aug-24 21:30N 53°55' E 007°50'0 0.0
2016-Aug-24 20:30N 53°55' E 007°50'0 0.0
2016-Aug-24 19:30N 53°55' E 007°50'0 0.0
2016-Aug-24 18:33N 53°55' E 007°50'0 0.0
2016-Aug-24 17:33N 53°55' E 007°50'0 0.0
2016-Aug-24 16:30N 53°55' E 007°50'0 0.0
2016-Aug-24 15:33N 53°55' E 007°50'0 0.1
2016-Aug-24 14:30N 53°55' E 007°50'0 0.0
2016-Aug-24 12:30N 53°55' E 007°50'0 0.0
2016-Aug-24 11:24N 53°55' E 007°50'0 0.1
2016-Aug-24 10:18N 53°55' E 007°50'0 0.0
2016-Aug-24 09:30N 53°55' E 007°50'0 0.0
2016-Aug-24 08:30N 53°55' E 007°50'0 0.0
2016-Aug-24 07:33N 53°55' E 007°50'0 0.0
2016-Aug-24 06:30N 53°55' E 007°50'0 0.0
2016-Aug-24 04:33N 53°55' E 007°50'0 0.0
2016-Aug-24 03:33N 53°55' E 007°50'0 0.0
2016-Aug-24 02:33N 53°55' E 007°50'0 0.0
2016-Aug-24 01:24N 53°55' E 007°50'0 0.0
2016-Aug-24 00:33N 53°55' E 007°50'0 0.0
2016-Aug-23 23:33N 53°55' E 007°50'0 0.0
2016-Aug-23 22:33N 53°55' E 007°50'0 0.1
2016-Aug-23 21:30N 53°55' E 007°50'0 0.0
2016-Aug-23 20:33N 53°55' E 007°50'0 0.0
2016-Aug-23 19:30N 53°55' E 007°50'0 0.0
2016-Aug-23 18:33N 53°55' E 007°50'0 0.0
2016-Aug-23 17:33N 53°55' E 007°50'0 0.0
2016-Aug-23 16:33N 53°55' E 007°50'0 0.1
2016-Aug-23 15:33N 53°55' E 007°50'0 0.0
2016-Aug-23 14:27N 53°55' E 007°50'0 0.0
2016-Aug-23 13:30N 53°55' E 007°50'0 0.0
2016-Aug-23 12:24N 53°55' E 007°50'0 0.0
2016-Aug-23 11:33N 53°55' E 007°50'0 0.0
2016-Aug-23 10:24N 53°55' E 007°50'0 0.0
2016-Aug-23 09:30N 53°55' E 007°50'0 0.1
2016-Aug-23 08:30N 53°55' E 007°50'0 0.0
2016-Aug-23 07:33N 53°55' E 007°50'0 0.0
2016-Aug-23 06:33N 53°55' E 007°50'3 2.6
2016-Aug-23 05:33N 53°55' E 007°45'5 5.1
2016-Aug-23 04:33N 53°55' E 007°37'4 3.9
2016-Aug-23 03:33N 53°54' E 007°31'5 4.6
2016-Aug-23 02:32N 53°52' E 007°23'6 5.6
2016-Aug-23 01:32N 53°51' E 007°14'6 6.1
2016-Aug-23 00:33N 53°50' E 007°04'7 6.5
2016-Aug-22 23:33N 53°48' E 006°53'7 6.7
2016-Aug-22 22:33N 53°47' E 006°42'8 7.8
2016-Aug-22 21:33N 53°44' E 006°29'6 6.4
2016-Aug-22 20:33N 53°39' E 006°23'4 3.5
2016-Aug-22 19:33N 53°37' E 006°28'6 5.8
2016-Aug-22 18:33N 53°35' E 006°37'9 9.1
2016-Aug-22 17:33N 53°30' E 006°49'1010.0
2016-Aug-22 16:33N 53°22' E 006°59'7 6.9
2016-Aug-22 15:33N 53°20' E 007°10'1 0.6
2016-Aug-22 14:33N 53°20' E 007°11'0 0.0
2016-Aug-22 13:33N 53°20' E 007°11'0 0.0
2016-Aug-22 12:33N 53°20' E 007°11'0 0.0
2016-Aug-22 11:34N 53°20' E 007°11'0 0.0
2016-Aug-22 10:33N 53°20' E 007°11'0 0.0
2016-Aug-22 09:33N 53°20' E 007°11'0 0.0
2016-Aug-22 08:33N 53°20' E 007°11'0 0.0
2016-Aug-22 07:33N 53°20' E 007°11'0 0.0
2016-Aug-22 06:33N 53°20' E 007°11'0 0.0
2016-Aug-22 05:33N 53°20' E 007°11'0 0.0
2016-Aug-22 04:33N 53°20' E 007°11'0 0.0
2016-Aug-22 03:33N 53°20' E 007°11'0 0.0
2016-Aug-22 02:33N 53°20' E 007°11'0 0.0
2016-Aug-22 01:33N 53°20' E 007°11'0 0.0
2016-Aug-22 00:33N 53°20' E 007°11'0 0.0
2016-Aug-21 23:33N 53°20' E 007°11'0 0.0
2016-Aug-21 22:33N 53°20' E 007°11'0 0.0
2016-Aug-21 21:33N 53°20' E 007°11'0 0.0
2016-Aug-21 20:33N 53°20' E 007°11'0 0.0
2016-Aug-21 19:34N 53°20' E 007°11'0 0.0
2016-Aug-21 18:33N 53°20' E 007°11'0 0.0
2016-Aug-21 17:33N 53°20' E 007°11'0 0.0
2016-Aug-21 16:33N 53°20' E 007°11'0 0.0
2016-Aug-21 15:34N 53°20' E 007°11'0 0.0
2016-Aug-21 14:33N 53°20' E 007°11'0 0.0
2016-Aug-21 13:34N 53°20' E 007°11'0 0.0
2016-Aug-21 12:33N 53°20' E 007°11'0 0.0
2016-Aug-21 11:33N 53°20' E 007°11'0 0.0
2016-Aug-21 10:33N 53°20' E 007°11'0 0.0
2016-Aug-21 09:34N 53°20' E 007°11'0 0.0
2016-Aug-21 08:33N 53°20' E 007°11'0 0.0
2016-Aug-21 07:34N 53°20' E 007°11'0 0.0
2016-Aug-21 06:34N 53°20' E 007°11'0 0.0
2016-Aug-21 05:34N 53°20' E 007°11'0 0.0
2016-Aug-21 04:33N 53°20' E 007°11'0 0.0
2016-Aug-21 03:33N 53°20' E 007°11'0 0.0
2016-Aug-21 02:34N 53°20' E 007°11'0 0.0
2016-Aug-21 01:34N 53°20' E 007°11'0 0.0
2016-Aug-21 00:33N 53°20' E 007°11'0 0.0
2016-Aug-20 23:33N 53°20' E 007°11'0 0.0
2016-Aug-20 22:33N 53°20' E 007°11'0 0.0
2016-Aug-20 21:33N 53°20' E 007°11'0 0.0
2016-Aug-20 20:33N 53°20' E 007°11'0 0.0
2016-Aug-20 19:33N 53°20' E 007°11'0 0.0
2016-Aug-20 18:33N 53°20' E 007°11'0 0.0
2016-Aug-20 17:33N 53°20' E 007°11'0 0.0
2016-Aug-20 16:33N 53°20' E 007°11'0 0.0
2016-Aug-20 15:33N 53°20' E 007°11'0 0.0
2016-Aug-20 14:33N 53°20' E 007°11'0 0.0
2016-Aug-20 13:33N 53°20' E 007°11'0 0.0
2016-Aug-20 12:33N 53°20' E 007°11'0 0.0
2016-Aug-20 11:33N 53°20' E 007°11'0 0.0
2016-Aug-20 10:34N 53°20' E 007°11'0 0.0
2016-Aug-20 09:33N 53°20' E 007°11'0 0.0
2016-Aug-20 08:33N 53°20' E 007°11'0 0.0
2016-Aug-20 07:34N 53°20' E 007°11'0 0.0
2016-Aug-20 06:34N 53°20' E 007°11'0 0.0
2016-Aug-20 05:33N 53°20' E 007°11'0 0.0
2016-Aug-20 04:34N 53°20' E 007°11'0 0.0
2016-Aug-20 03:33N 53°20' E 007°11'0 0.0
2016-Aug-20 02:34N 53°20' E 007°11'0 0.0
2016-Aug-20 01:34N 53°20' E 007°11'0 0.0
2016-Aug-20 00:33N 53°20' E 007°11'0 0.0
2016-Aug-19 23:34N 53°20' E 007°11'0 0.0
2016-Aug-19 22:33N 53°20' E 007°11'0 0.0
2016-Aug-19 21:33N 53°20' E 007°11'0 0.0
2016-Aug-19 20:33N 53°20' E 007°11'0 0.0
2016-Aug-19 19:33N 53°20' E 007°11'0 0.0
2016-Aug-19 18:33N 53°20' E 007°11'0 0.0
2016-Aug-19 17:33N 53°20' E 007°11'0 0.0
2016-Aug-19 16:33N 53°20' E 007°11'0 0.0
2016-Aug-19 15:33N 53°20' E 007°11'0 0.0
2016-Aug-19 14:33N 53°20' E 007°11'0 0.0
2016-Aug-19 13:33N 53°20' E 007°11'0 0.0
2016-Aug-19 12:33N 53°20' E 007°11'0 0.0
2016-Aug-19 11:33N 53°20' E 007°11'0 0.0
2016-Aug-19 10:33N 53°20' E 007°11'1 0.5
2016-Aug-19 09:33N 53°20' E 007°10'7 6.7
2016-Aug-19 08:33N 53°21' E 006°59'9 8.9
2016-Aug-19 07:33N 53°28' E 006°51'9 9.4
2016-Aug-19 06:33N 53°34' E 006°39'8 7.9
2016-Aug-19 05:33N 53°37' E 006°26'5 4.7
2016-Aug-19 04:33N 53°40' E 006°20'3 2.5
2016-Aug-19 03:33N 53°42' E 006°22'5 5.4
2016-Aug-19 02:33N 53°47' E 006°21'5 5.2
2016-Aug-19 01:32N 53°53' E 006°20'6 5.8
2016-Aug-19 00:32N 53°59' E 006°19'7 6.2
2016-Aug-18 23:29N 54°05' E 006°20'58 5.8
2016-Aug-18 13:29N 55°03' E 006°25'4 4.2
2016-Aug-18 12:33N 55°07' E 006°25'5 5.1
2016-Aug-18 11:33N 55°12' E 006°25'5 4.9
2016-Aug-18 10:34N 55°17' E 006°26'7 5.7
2016-Aug-18 09:19N 55°23' E 006°32'4 5.2
2016-Aug-18 08:29N 55°27' E 006°36'5 4.7
2016-Aug-18 07:30N 55°31' E 006°40'5 5.1
2016-Aug-18 06:33N 55°35' E 006°45'16 4.0
2016-Aug-18 02:30N 55°50' E 006°53'4 3.9
2016-Aug-18 01:29N 55°54' E 006°55'4 4.3
2016-Aug-18 00:33N 55°58' E 006°57'5 4.9
2016-Aug-17 23:29N 56°03' E 007°00'  
Track history (hours):
 
Tides and Currents Weather Stations Pressure Air Temp Water Temp Dewpoint Dewpoint Depression Visibility Wind Speed Wind Dir Waves Ship Positions

Sedov (Russia)

Last reported at 2016-Aug-27 23:20 UTC. Time now 2016-Aug-28 00:34 UTC.
Position N 53°31' E 008°08'.

Length 118 m; draft 6.3 m.

Type: Sailing vessel. MMSI: 273510000.

Date/timePositionNaut miles runAvg speedWind from/ knotsBaromVisibWave heightAir tempDewpointWater temp
2016-Aug-27 23:20N 53°31' E 008°08'0 0.0
2016-Aug-27 22:17N 53°31' E 008°08'0 0.0
2016-Aug-27 21:32N 53°31' E 008°08'0 0.0
2016-Aug-27 20:32N 53°31' E 008°08'0 0.0
2016-Aug-27 19:32N 53°31' E 008°08'0 0.0
2016-Aug-27 18:32N 53°31' E 008°08'0 0.0
2016-Aug-27 17:29N 53°31' E 008°08'0 0.0
2016-Aug-27 16:32N 53°31' E 008°08'0 0.0
2016-Aug-27 15:32N 53°31' E 008°08'0 0.0
2016-Aug-27 14:29N 53°31' E 008°08'0 0.0
2016-Aug-27 13:26N 53°31' E 008°08'0 0.0
2016-Aug-27 12:26N 53°31' E 008°08'0 0.0
2016-Aug-27 11:32N 53°31' E 008°08'0 0.0
2016-Aug-27 10:29N 53°31' E 008°08'0 0.0
2016-Aug-27 09:29N 53°31' E 008°08'0 0.0
2016-Aug-27 08:32N 53°31' E 008°08'0 0.0
2016-Aug-27 07:29N 53°31' E 008°08'0 0.0
2016-Aug-27 06:23N 53°31' E 008°08'0 0.0
2016-Aug-27 04:32N 53°31' E 008°08'0 0.0
2016-Aug-27 03:32N 53°31' E 008°08'0 0.0
2016-Aug-27 01:32N 53°31' E 008°08'0 0.0
2016-Aug-27 00:26N 53°31' E 008°08'0 0.0
2016-Aug-26 23:17N 53°31' E 008°08'0 0.0
2016-Aug-26 22:17N 53°31' E 008°08'0 0.0
2016-Aug-26 21:32N 53°31' E 008°08'0 0.0
2016-Aug-26 20:32N 53°31' E 008°08'0 0.0
2016-Aug-26 19:32N 53°31' E 008°08'0 0.0
2016-Aug-26 18:32N 53°31' E 008°08'0 0.0
2016-Aug-26 17:32N 53°31' E 008°08'0 0.0
2016-Aug-26 16:32N 53°31' E 008°08'0 0.0
2016-Aug-26 15:32N 53°31' E 008°08'0 0.0
2016-Aug-26 14:32N 53°31' E 008°08'0 0.0
2016-Aug-26 13:33N 53°31' E 008°08'0 0.0
2016-Aug-26 12:33N 53°31' E 008°08'0 0.4
2016-Aug-26 11:33N 53°31' E 008°08'1 1.2
2016-Aug-26 10:33N 53°32' E 008°10'4 4.1
2016-Aug-26 09:33N 53°36' E 008°10'5 5.3
2016-Aug-26 08:33N 53°41' E 008°05'4 4.3
2016-Aug-26 07:34N 53°45' E 008°03'4 3.7
2016-Aug-26 06:33N 53°48' E 008°01'9 4.6
2016-Aug-26 04:33N 53°55' E 007°50'0 0.0
2016-Aug-26 03:30N 53°55' E 007°50'0 0.0
2016-Aug-26 02:30N 53°55' E 007°50'0 0.0
2016-Aug-26 01:09N 53°55' E 007°50'0 0.0
2016-Aug-26 00:33N 53°55' E 007°50'0 0.1
2016-Aug-25 23:24N 53°55' E 007°50'0 0.1
2016-Aug-25 22:33N 53°55' E 007°50'0 0.0
2016-Aug-25 21:30N 53°55' E 007°50'0 0.0
2016-Aug-25 20:30N 53°55' E 007°50'0 0.0
2016-Aug-25 19:27N 53°55' E 007°50'0 0.0
2016-Aug-25 18:24N 53°55' E 007°50'0 0.0
2016-Aug-25 17:33N 53°55' E 007°50'0 0.0
2016-Aug-25 16:30N 53°55' E 007°50'0 0.0
2016-Aug-25 15:24N 53°55' E 007°50'0 0.0
2016-Aug-25 14:24N 53°55' E 007°50'0 0.0
2016-Aug-25 13:33N 53°55' E 007°50'0 0.0
2016-Aug-25 12:30N 53°55' E 007°50'0 0.0
2016-Aug-25 11:30N 53°55' E 007°50'0 0.1
2016-Aug-25 10:33N 53°55' E 007°50'0 0.0
2016-Aug-25 09:30N 53°55' E 007°50'0 0.0
2016-Aug-25 08:33N 53°55' E 007°50'0 0.0
2016-Aug-25 07:33N 53°55' E 007°50'0 0.0
2016-Aug-25 06:33N 53°55' E 007°50'0 0.0
2016-Aug-25 04:33N 53°55' E 007°50'0 0.0
2016-Aug-25 03:30N 53°55' E 007°50'0 0.0
2016-Aug-25 02:33N 53°55' E 007°50'0 0.0
2016-Aug-25 01:30N 53°55' E 007°50'0 0.0
2016-Aug-25 00:33N 53°55' E 007°50'0 0.0
2016-Aug-24 23:33N 53°55' E 007°50'0 0.1
2016-Aug-24 22:33N 53°55' E 007°50'0 0.0
2016-Aug-24 21:30N 53°55' E 007°50'0 0.0
2016-Aug-24 20:30N 53°55' E 007°50'0 0.0
2016-Aug-24 19:30N 53°55' E 007°50'0 0.0
2016-Aug-24 18:33N 53°55' E 007°50'0 0.0
2016-Aug-24 17:33N 53°55' E 007°50'0 0.0
2016-Aug-24 16:30N 53°55' E 007°50'0 0.0
2016-Aug-24 15:33N 53°55' E 007°50'0 0.1
2016-Aug-24 14:30N 53°55' E 007°50'0 0.0
2016-Aug-24 12:30N 53°55' E 007°50'0 0.0
2016-Aug-24 11:24N 53°55' E 007°50'0 0.1
2016-Aug-24 10:18N 53°55' E 007°50'0 0.0
2016-Aug-24 09:30N 53°55' E 007°50'0 0.0
2016-Aug-24 08:30N 53°55' E 007°50'0 0.0
2016-Aug-24 07:33N 53°55' E 007°50'0 0.0
2016-Aug-24 06:30N 53°55' E 007°50'0 0.0
2016-Aug-24 04:33N 53°55' E 007°50'0 0.0
2016-Aug-24 03:33N 53°55' E 007°50'0 0.0
2016-Aug-24 02:33N 53°55' E 007°50'0 0.0
2016-Aug-24 01:24N 53°55' E 007°50'0 0.0
2016-Aug-24 00:33N 53°55' E 007°50'0 0.0
2016-Aug-23 23:33N 53°55' E 007°50'0 0.0
2016-Aug-23 22:33N 53°55' E 007°50'0 0.1
2016-Aug-23 21:30N 53°55' E 007°50'0 0.0
2016-Aug-23 20:33N 53°55' E 007°50'0 0.0
2016-Aug-23 19:30N 53°55' E 007°50'0 0.0
2016-Aug-23 18:33N 53°55' E 007°50'0 0.0
2016-Aug-23 17:33N 53°55' E 007°50'0 0.0
2016-Aug-23 16:33N 53°55' E 007°50'0 0.1
2016-Aug-23 15:33N 53°55' E 007°50'0 0.0
2016-Aug-23 14:27N 53°55' E 007°50'0 0.0
2016-Aug-23 13:30N 53°55' E 007°50'0 0.0
2016-Aug-23 12:24N 53°55' E 007°50'0 0.0
2016-Aug-23 11:33N 53°55' E 007°50'0 0.0
2016-Aug-23 10:24N 53°55' E 007°50'0 0.0
2016-Aug-23 09:30N 53°55' E 007°50'0 0.1
2016-Aug-23 08:30N 53°55' E 007°50'0 0.0
2016-Aug-23 07:33N 53°55' E 007°50'0 0.0
2016-Aug-23 06:33N 53°55' E 007°50'3 2.6
2016-Aug-23 05:33N 53°55' E 007°45'5 5.1
2016-Aug-23 04:33N 53°55' E 007°37'4 3.9
2016-Aug-23 03:33N 53°54' E 007°31'5 4.6
2016-Aug-23 02:32N 53°52' E 007°23'6 5.6
2016-Aug-23 01:32N 53°51' E 007°14'6 6.1
2016-Aug-23 00:33N 53°50' E 007°04'7 6.5
2016-Aug-22 23:33N 53°48' E 006°53'7 6.7
2016-Aug-22 22:33N 53°47' E 006°42'8 7.8
2016-Aug-22 21:33N 53°44' E 006°29'6 6.4
2016-Aug-22 20:33N 53°39' E 006°23'4 3.5
2016-Aug-22 19:33N 53°37' E 006°28'6 5.8
2016-Aug-22 18:33N 53°35' E 006°37'9 9.1
2016-Aug-22 17:33N 53°30' E 006°49'1010.0
2016-Aug-22 16:33N 53°22' E 006°59'7 6.9
2016-Aug-22 15:33N 53°20' E 007°10'1 0.6
2016-Aug-22 14:33N 53°20' E 007°11'0 0.0
2016-Aug-22 13:33N 53°20' E 007°11'0 0.0
2016-Aug-22 12:33N 53°20' E 007°11'0 0.0
2016-Aug-22 11:34N 53°20' E 007°11'0 0.0
2016-Aug-22 10:33N 53°20' E 007°11'0 0.0
2016-Aug-22 09:33N 53°20' E 007°11'0 0.0
2016-Aug-22 08:33N 53°20' E 007°11'0 0.0
2016-Aug-22 07:33N 53°20' E 007°11'0 0.0
2016-Aug-22 06:33N 53°20' E 007°11'0 0.0
2016-Aug-22 05:33N 53°20' E 007°11'0 0.0
2016-Aug-22 04:33N 53°20' E 007°11'0 0.0
2016-Aug-22 03:33N 53°20' E 007°11'0 0.0
2016-Aug-22 02:33N 53°20' E 007°11'0 0.0
2016-Aug-22 01:33N 53°20' E 007°11'0 0.0
2016-Aug-22 00:33N 53°20' E 007°11'0 0.0
2016-Aug-21 23:33N 53°20' E 007°11'0 0.0
2016-Aug-21 22:33N 53°20' E 007°11'0 0.0
2016-Aug-21 21:33N 53°20' E 007°11'0 0.0
2016-Aug-21 20:33N 53°20' E 007°11'0 0.0
2016-Aug-21 19:34N 53°20' E 007°11'0 0.0
2016-Aug-21 18:33N 53°20' E 007°11'0 0.0
2016-Aug-21 17:33N 53°20' E 007°11'0 0.0
2016-Aug-21 16:33N 53°20' E 007°11'0 0.0
2016-Aug-21 15:34N 53°20' E 007°11'0 0.0
2016-Aug-21 14:33N 53°20' E 007°11'0 0.0
2016-Aug-21 13:34N 53°20' E 007°11'0 0.0
2016-Aug-21 12:33N 53°20' E 007°11'0 0.0
2016-Aug-21 11:33N 53°20' E 007°11'0 0.0
2016-Aug-21 10:33N 53°20' E 007°11'0 0.0
2016-Aug-21 09:34N 53°20' E 007°11'0 0.0
2016-Aug-21 08:33N 53°20' E 007°11'0 0.0
2016-Aug-21 07:34N 53°20' E 007°11'0 0.0
2016-Aug-21 06:34N 53°20' E 007°11'0 0.0
2016-Aug-21 05:34N 53°20' E 007°11'0 0.0
2016-Aug-21 04:33N 53°20' E 007°11'0 0.0
2016-Aug-21 03:33N 53°20' E 007°11'0 0.0
2016-Aug-21 02:34N 53°20' E 007°11'0 0.0
2016-Aug-21 01:34N 53°20' E 007°11'0 0.0
2016-Aug-21 00:33N 53°20' E 007°11'0 0.0
2016-Aug-20 23:33N 53°20' E 007°11'0 0.0
2016-Aug-20 22:33N 53°20' E 007°11'0 0.0
2016-Aug-20 21:33N 53°20' E 007°11'0 0.0
2016-Aug-20 20:33N 53°20' E 007°11'0 0.0
2016-Aug-20 19:33N 53°20' E 007°11'0 0.0
2016-Aug-20 18:33N 53°20' E 007°11'0 0.0
2016-Aug-20 17:33N 53°20' E 007°11'0 0.0
2016-Aug-20 16:33N 53°20' E 007°11'0 0.0
2016-Aug-20 15:33N 53°20' E 007°11'0 0.0
2016-Aug-20 14:33N 53°20' E 007°11'0 0.0
2016-Aug-20 13:33N 53°20' E 007°11'0 0.0
2016-Aug-20 12:33N 53°20' E 007°11'0 0.0
2016-Aug-20 11:33N 53°20' E 007°11'0 0.0
2016-Aug-20 10:34N 53°20' E 007°11'0 0.0
2016-Aug-20 09:33N 53°20' E 007°11'0 0.0
2016-Aug-20 08:33N 53°20' E 007°11'0 0.0
2016-Aug-20 07:34N 53°20' E 007°11'0 0.0
2016-Aug-20 06:34N 53°20' E 007°11'0 0.0
2016-Aug-20 05:33N 53°20' E 007°11'0 0.0
2016-Aug-20 04:34N 53°20' E 007°11'0 0.0
2016-Aug-20 03:33N 53°20' E 007°11'0 0.0
2016-Aug-20 02:34N 53°20' E 007°11'0 0.0
2016-Aug-20 01:34N 53°20' E 007°11'0 0.0
2016-Aug-20 00:33N 53°20' E 007°11'0 0.0
2016-Aug-19 23:34N 53°20' E 007°11'0 0.0
2016-Aug-19 22:33N 53°20' E 007°11'0 0.0
2016-Aug-19 21:33N 53°20' E 007°11'0 0.0
2016-Aug-19 20:33N 53°20' E 007°11'0 0.0
2016-Aug-19 19:33N 53°20' E 007°11'0 0.0
2016-Aug-19 18:33N 53°20' E 007°11'0 0.0
2016-Aug-19 17:33N 53°20' E 007°11'0 0.0
2016-Aug-19 16:33N 53°20' E 007°11'0 0.0
2016-Aug-19 15:33N 53°20' E 007°11'0 0.0
2016-Aug-19 14:33N 53°20' E 007°11'0 0.0
2016-Aug-19 13:33N 53°20' E 007°11'0 0.0
2016-Aug-19 12:33N 53°20' E 007°11'0 0.0
2016-Aug-19 11:33N 53°20' E 007°11'0 0.0
2016-Aug-19 10:33N 53°20' E 007°11'1 0.5
2016-Aug-19 09:33N 53°20' E 007°10'7 6.7
2016-Aug-19 08:33N 53°21' E 006°59'9 8.9
2016-Aug-19 07:33N 53°28' E 006°51'9 9.4
2016-Aug-19 06:33N 53°34' E 006°39'8 7.9
2016-Aug-19 05:33N 53°37' E 006°26'5 4.7
2016-Aug-19 04:33N 53°40' E 006°20'3 2.5
2016-Aug-19 03:33N 53°42' E 006°22'5 5.4
2016-Aug-19 02:33N 53°47' E 006°21'5 5.2
2016-Aug-19 01:32N 53°53' E 006°20'6 5.8
2016-Aug-19 00:32N 53°59' E 006°19'7 6.2
2016-Aug-18 23:29N 54°05' E 006°20'58 5.8
2016-Aug-18 13:29N 55°03' E 006°25'4 4.2
2016-Aug-18 12:33N 55°07' E 006°25'5 5.1
2016-Aug-18 11:33N 55°12' E 006°25'5 4.9
2016-Aug-18 10:34N 55°17' E 006°26'7 5.7
2016-Aug-18 09:19N 55°23' E 006°32'4 5.2
2016-Aug-18 08:29N 55°27' E 006°36'5 4.7
2016-Aug-18 07:30N 55°31' E 006°40'5 5.1
2016-Aug-18 06:33N 55°35' E 006°45'16 4.0
2016-Aug-18 02:30N 55°50' E 006°53'4 3.9
2016-Aug-18 01:29N 55°54' E 006°55'4 4.3
2016-Aug-18 00:33N 55°58' E 006°57'5 4.9
2016-Aug-17 23:29N 56°03' E 007°00'  

Dump ship's entire track history